Weather History for Michigan City, IN

Change the Weather History Date:

Monday, October 1, 2012

  Actual Average (KVPZ) Record (KVPZ)
Temperature  
Mean Temperature 52 °F 57 °F  
Max Temperature 64 °F 69 °F 84 °F (2002)
Min Temperature 41 °F 46 °F 32 °F (2003)
Degree Days  
Heating Degree Days 12 9  
Month to date heating degree days 9  
Since 1 July heating degree days 139  
Cooling Degree Days 0 1  
Month to date cooling degree days 1  
Year to date cooling degree days 703  
Growing Degree Days 2 (Base 50)    
Moisture  
Dew Point 45 °F    
Average Humidity 79    
Maximum Humidity 100    
Minimum Humidity 42    
Precipitation  
Precipitation 0.00 in 0.10 in 0.48 in (2008)
Month to date precipitation 0.10  
Year to date precipitation 28.85  
Sea Level Pressure  
Sea Level Pressure 29.89 in    
Wind  
Wind Speed 1 mph ()    
Max Wind Speed 8 mph    
Max Gust Speed -    
Visibility 9.1 miles    
Events Fog    
T = Trace of Precipitation, MM = Missing Value Source: Averaged Metar Reports

Daily Weather History Graph

Daily Weather History Graph

Search for Another Location

Airport:

Trip Planner

Search our weather history database for the weather conditions in past years. The results will help you decide how hot, cold, wet, or windy it might be!

Date:

Astronomy

Oct. 01, 2012 Rise Set
Actual Time 6:44 AM CDT 6:28 PM CDT
Civil Twilight 6:16 AM CDT 6:55 PM CDT
Nautical Twilight 5:44 AM CDT 7:27 PM CDT
Astronomical Twilight 5:12 AM CDT 8:00 PM CDT
Moon 7:02 PM CDT (10/1) 8:15 AM CDT (10/1)
Length of Visible Light 12h 38m
Length of Day
11h 43m
Full, 98% of the Moon is Illuminated
Oct 1
Full
Oct 8
Last Quarter
Oct 15
New
Oct 21
First Quarter
Oct 29
Full

Hourly Weather History & Observations

Time (CDT) Temp. Dew Point Humidity Pressure Visibility Wind Dir Wind Speed Gust Speed Precip Events Conditions
12:15 AM 44.6 °F 44.6 °F 100% 29.95 in 3.0 mi Calm Calm - N/A   Clear
12:35 AM 44.6 °F 44.6 °F 100% 29.94 in 0.5 mi Calm Calm - N/A Fog Fog
12:55 AM 42.8 °F 42.8 °F 100% 29.94 in 5.0 mi Calm Calm - N/A   Scattered Clouds
1:15 AM 44.6 °F 42.8 °F 93% 29.94 in 3.0 mi Calm Calm - N/A   Clear
1:35 AM 44.6 °F 44.6 °F 100% 29.94 in 10.0 mi Calm Calm - N/A   Clear
2:15 AM 44.6 °F 44.6 °F 100% 29.93 in 10.0 mi Calm Calm - N/A   Clear
2:35 AM 42.8 °F 42.8 °F 100% 29.93 in 7.0 mi Calm Calm - N/A   Clear
2:55 AM 42.8 °F 42.8 °F 100% 29.92 in 10.0 mi Calm Calm - N/A   Clear
3:15 AM 44.6 °F 42.8 °F 93% 29.92 in 10.0 mi Calm Calm - N/A   Clear
3:35 AM 44.6 °F 44.6 °F 100% 29.92 in 10.0 mi Calm Calm - N/A   Clear
3:55 AM 42.8 °F 42.8 °F 100% 29.92 in 10.0 mi Calm Calm - N/A   Clear
4:15 AM 42.8 °F 42.8 °F 100% 29.92 in 10.0 mi Calm Calm - N/A   Clear
4:35 AM 42.8 °F 41.0 °F 93% 29.92 in 10.0 mi Calm Calm - N/A   Clear
4:55 AM 42.8 °F 41.0 °F 93% 29.92 in 10.0 mi Calm Calm - N/A   Clear
5:15 AM 42.8 °F 41.0 °F 93% 29.92 in 10.0 mi Calm Calm - N/A   Clear
5:35 AM 42.8 °F 42.8 °F 100% 29.92 in 10.0 mi Calm Calm - N/A   Clear
5:55 AM 41.0 °F 41.0 °F 100% 29.92 in 10.0 mi Calm Calm - N/A   Clear
6:15 AM 41.0 °F 41.0 °F 100% 29.92 in 7.0 mi Calm Calm - N/A   Clear
6:35 AM 41.0 °F 41.0 °F 100% 29.92 in 2.0 mi Calm Calm - N/A   Clear
7:15 AM 41.0 °F 41.0 °F 100% 29.94 in 3.0 mi Calm Calm - N/A   Clear
7:35 AM 42.8 °F 42.8 °F 100% 29.94 in 5.0 mi Calm Calm - N/A   Clear
7:55 AM 44.6 °F 44.6 °F 100% 29.94 in 7.0 mi Calm Calm - N/A   Clear
8:15 AM 48.2 °F 46.4 °F 93% 29.94 in 7.0 mi Calm Calm - N/A   Clear
8:35 AM 51.8 °F 46.4 °F 82% 29.94 in 10.0 mi Calm Calm - N/A   Clear
8:55 AM 53.6 °F 44.6 °F 72% 29.94 in 10.0 mi Calm Calm - N/A   Clear
9:15 AM 55.4 °F 44.6 °F 67% 29.94 in 10.0 mi SE 3.5 mph - N/A   Clear
9:35 AM 55.4 °F 44.6 °F 67% 29.94 in 10.0 mi SE 5.8 mph - N/A   Clear
9:55 AM 59.0 °F 44.6 °F 59% 29.93 in 10.0 mi Calm Calm - N/A   Clear
10:15 AM 59.0 °F 44.6 °F 59% 29.92 in 10.0 mi ESE 4.6 mph - N/A   Clear
10:35 AM 59.0 °F 44.6 °F 59% 29.92 in 10.0 mi SE 5.8 mph - N/A   Clear
10:55 AM 60.8 °F 42.8 °F 52% 29.91 in 10.0 mi East 3.5 mph - N/A   Clear
11:15 AM 60.8 °F 42.8 °F 52% 29.91 in 10.0 mi ENE 4.6 mph - N/A   Clear
11:35 AM 60.8 °F 42.8 °F 52% 29.91 in 10.0 mi ESE 3.5 mph - N/A   Clear
11:55 AM 62.6 °F 41.0 °F 45% 29.91 in 10.0 mi ENE 5.8 mph - N/A   Clear
12:15 PM 62.6 °F 41.0 °F 45% 29.90 in 10.0 mi Calm Calm - N/A   Clear
12:35 PM 62.6 °F 41.0 °F 45% 29.89 in 10.0 mi ENE 5.8 mph - N/A   Clear
1:15 PM 62.6 °F 41.0 °F 45% 29.87 in 10.0 mi NE 8.1 mph - N/A   Clear
1:35 PM 62.6 °F 42.8 °F 48% 29.87 in 10.0 mi NNE 4.6 mph - N/A   Clear
1:55 PM 62.6 °F 41.0 °F 45% 29.86 in 10.0 mi East 5.8 mph - N/A   Clear
2:15 PM 62.6 °F 42.8 °F 48% 29.86 in 10.0 mi East 3.5 mph - N/A   Clear
2:35 PM 64.4 °F 41.0 °F 42% 29.86 in 10.0 mi ESE 4.6 mph - N/A   Clear
3:15 PM 62.6 °F 41.0 °F 45% 29.84 in 10.0 mi NE 6.9 mph - N/A   Clear
3:35 PM 62.6 °F 46.4 °F 55% 29.84 in 10.0 mi North 8.1 mph - N/A   Clear
4:15 PM 60.8 °F 48.2 °F 63% 29.84 in 10.0 mi NNE 5.8 mph - N/A   Clear
4:35 PM 60.8 °F 48.2 °F 63% 29.83 in 10.0 mi North 8.1 mph - N/A   Clear
4:55 PM 59.0 °F 48.2 °F 67% 29.84 in 10.0 mi North 6.9 mph - N/A   Clear
5:15 PM 59.0 °F 48.2 °F 67% 29.84 in 10.0 mi North 5.8 mph - N/A   Clear
5:35 PM 59.0 °F 48.2 °F 67% 29.84 in 10.0 mi NNE 3.5 mph - N/A   Clear
5:55 PM 59.0 °F 48.2 °F 67% 29.84 in 10.0 mi NNE 3.5 mph - N/A   Clear
6:15 PM 57.2 °F 48.2 °F 72% 29.83 in 10.0 mi Calm Calm - N/A   Clear
6:35 PM 57.2 °F 50.0 °F 77% 29.83 in 10.0 mi Calm Calm - N/A   Clear
6:55 PM 55.4 °F 50.0 °F 82% 29.83 in 10.0 mi Calm Calm - N/A   Clear
7:15 PM 55.4 °F 50.0 °F 82% 29.83 in 10.0 mi Calm Calm - N/A   Clear
7:35 PM 55.4 °F 50.0 °F 82% 29.83 in 10.0 mi Calm Calm - N/A   Clear
7:55 PM 55.4 °F 50.0 °F 82% 29.84 in 10.0 mi Calm Calm - N/A   Clear
8:15 PM 53.6 °F 50.0 °F 88% 29.85 in 10.0 mi Calm Calm - N/A   Clear
8:35 PM 53.6 °F 50.0 °F 88% 29.85 in 10.0 mi Calm Calm - N/A   Clear
8:55 PM 51.8 °F 50.0 °F 94% 29.84 in 10.0 mi Calm Calm - N/A   Clear
9:15 PM 53.6 °F 50.0 °F 88% 29.85 in 10.0 mi Calm Calm - N/A   Clear
9:35 PM 51.8 °F 50.0 °F 94% 29.84 in 10.0 mi Calm Calm - N/A   Clear
9:55 PM 51.8 °F 50.0 °F 94% 29.83 in 10.0 mi Calm Calm - N/A   Clear
10:15 PM 51.8 °F 48.2 °F 88% 29.83 in 10.0 mi Calm Calm - N/A   Clear
10:35 PM 53.6 °F 50.0 °F 88% 29.83 in 10.0 mi Calm Calm - N/A   Clear
11:15 PM 51.8 °F 48.2 °F 88% 29.83 in 10.0 mi Calm Calm - N/A   Clear
11:35 PM 51.8 °F 48.2 °F 88% 29.82 in 10.0 mi Calm Calm - N/A   Clear
11:55 PM 55.4 °F 46.4 °F 72% 29.82 in 10.0 mi East 3.5 mph - N/A   Clear